Free aircraft booking by Goboko

Please sign in again to see members

Sign in

Goboko Update

Goboko is set to continue

The Goboko booking system is to continue under a new operator, a member of one of our longest-subscribed flying clubs

The new and previous operators of the site are working to ensure there will be no interruption to your booking service as the transition takes place. Of course, aircraft booking will continue to be free

Thank you for your continued commitment to Goboko


Aviation weather

METAR KDAB 230953Z 31006KT 10SM CLR 07/02 A3025 RMK AO2 SLP242 T00720017

TAF KDAB 230525Z 2306/2406 32003KT P6SM SKC FM231500 36009KT P6SM SKC FM240000 04003KT P6SM SKC

Aviation weather from ADDS. Re-check weather before flight.